sensor_id;sensor_type;location;lat;lon;timestamp;P1;durP1;ratioP1;P2;durP2;ratioP2
31596;SDS011;18201;50.978;7.034;2022-09-27T05:58:10;12.05;;;4.85;;
31596;SDS011;18201;50.978;7.034;2022-09-27T05:59:12;11.20;;;3.70;;
31596;SDS011;18201;50.978;7.034;2022-09-27T06:00:13;11.88;;;4.10;;
31596;SDS011;18201;50.978;7.034;2022-09-27T06:01:16;9.50;;;3.72;;
31596;SDS011;18201;50.978;7.034;2022-09-27T06:02:17;11.52;;;4.03;;
31596;SDS011;18201;50.978;7.034;2022-09-27T06:03:19;5.47;;;3.50;;
31596;SDS011;18201;50.978;7.034;2022-09-27T06:04:21;13.98;;;4.35;;
31596;SDS011;18201;50.978;7.034;2022-09-27T06:05:23;10.93;;;3.67;;
31596;SDS011;18201;50.978;7.034;2022-09-27T06:06:27;11.27;;;3.65;;
31596;SDS011;18201;50.978;7.034;2022-09-27T06:07:28;10.75;;;3.95;;
31596;SDS011;18201;50.978;7.034;2022-09-27T06:08:31;10.32;;;3.83;;
31596;SDS011;18201;50.978;7.034;2022-09-27T06:49:21;8.95;;;4.93;;
31596;SDS011;18201;50.978;7.034;2022-09-27T06:50:24;11.10;;;5.70;;
31596;SDS011;18201;50.978;7.034;2022-09-27T06:51:25;8.65;;;5.28;;
31596;SDS011;18201;50.978;7.034;2022-09-27T06:52:27;8.38;;;5.32;;
31596;SDS011;18201;50.978;7.034;2022-09-27T06:53:28;13.60;;;5.40;;
31596;SDS011;18201;50.978;7.034;2022-09-27T06:54:30;8.82;;;5.20;;
31596;SDS011;18201;50.978;7.034;2022-09-27T06:55:31;15.85;;;6.55;;
31596;SDS011;18201;50.978;7.034;2022-09-27T06:56:33;7.65;;;5.20;;
31596;SDS011;18201;50.978;7.034;2022-09-27T06:57:35;11.73;;;5.43;;
31596;SDS011;18201;50.978;7.034;2022-09-27T06:58:54;7.28;;;4.63;;
31596;SDS011;18201;50.978;7.034;2022-09-27T07:00:13;10.68;;;5.85;;
31596;SDS011;18201;50.978;7.034;2022-09-27T07:01:28;10.02;;;4.90;;
31596;SDS011;18201;50.978;7.034;2022-09-27T07:02:30;11.45;;;5.07;;
31596;SDS011;18201;50.978;7.034;2022-09-27T07:03:31;10.50;;;4.97;;
31596;SDS011;18201;50.978;7.034;2022-09-27T07:04:37;8.05;;;4.78;;
31596;SDS011;18201;50.978;7.034;2022-09-27T07:05:40;7.57;;;4.28;;
31596;SDS011;18201;50.978;7.034;2022-09-27T07:06:41;11.20;;;4.95;;
31596;SDS011;18201;50.978;7.034;2022-09-27T07:07:43;5.63;;;4.10;;
31596;SDS011;18201;50.978;7.034;2022-09-27T07:08:48;12.75;;;4.75;;
31596;SDS011;18201;50.978;7.034;2022-09-27T07:09:51;8.18;;;3.85;;
31596;SDS011;18201;50.978;7.034;2022-09-27T07:10:54;7.10;;;4.13;;
31596;SDS011;18201;50.978;7.034;2022-09-27T07:11:55;6.63;;;3.25;;
31596;SDS011;18201;50.978;7.034;2022-09-27T07:13:01;6.32;;;3.90;;
31596;SDS011;18201;50.978;7.034;2022-09-27T07:14:04;8.93;;;3.05;;
31596;SDS011;18201;50.978;7.034;2022-09-27T07:15:07;9.10;;;3.65;;
31596;SDS011;18201;50.978;7.034;2022-09-27T07:16:09;6.07;;;3.20;;
31596;SDS011;18201;50.978;7.034;2022-09-27T07:17:13;6.65;;;3.53;;
31596;SDS011;18201;50.978;7.034;2022-09-27T07:18:15;9.30;;;3.10;;
31596;SDS011;18201;50.978;7.034;2022-09-27T07:19:16;10.93;;;3.92;;
31596;SDS011;18201;50.978;7.034;2022-09-27T07:20:19;6.25;;;2.63;;
31596;SDS011;18201;50.978;7.034;2022-09-27T07:21:20;5.05;;;2.53;;
31596;SDS011;18201;50.978;7.034;2022-09-27T07:22:23;7.75;;;2.50;;
31596;SDS011;18201;50.978;7.034;2022-09-27T07:23:24;5.93;;;2.85;;
31596;SDS011;18201;50.978;7.034;2022-09-27T07:24:26;3.50;;;2.40;;
31596;SDS011;18201;50.978;7.034;2022-09-27T07:25:27;5.72;;;2.50;;
31596;SDS011;18201;50.978;7.034;2022-09-27T07:26:29;3.80;;;2.20;;
31596;SDS011;18201;50.978;7.034;2022-09-27T07:27:30;7.25;;;3.15;;
31596;SDS011;18201;50.978;7.034;2022-09-27T07:28:34;2.63;;;2.20;;
31596;SDS011;18201;50.978;7.034;2022-09-27T07:29:36;6.22;;;2.72;;
31596;SDS011;18201;50.978;7.034;2022-09-27T07:30:37;4.90;;;2.67;;
31596;SDS011;18201;50.978;7.034;2022-09-27T07:31:39;2.97;;;2.05;;
31596;SDS011;18201;50.978;7.034;2022-09-27T07:32:41;6.07;;;2.30;;
31596;SDS011;18201;50.978;7.034;2022-09-27T07:33:43;4.32;;;2.33;;
31596;SDS011;18201;50.978;7.034;2022-09-27T07:34:45;5.18;;;1.90;;
31596;SDS011;18201;50.978;7.034;2022-09-27T07:35:48;3.67;;;2.40;;
31596;SDS011;18201;50.978;7.034;2022-09-27T07:36:50;5.35;;;2.58;;
31596;SDS011;18201;50.978;7.034;2022-09-27T07:37:51;3.13;;;2.00;;
31596;SDS011;18201;50.978;7.034;2022-09-27T07:38:53;6.97;;;2.10;;
31596;SDS011;18201;50.978;7.034;2022-09-27T07:39:55;3.30;;;2.22;;
31596;SDS011;18201;50.978;7.034;2022-09-27T07:40:56;4.60;;;2.70;;
31596;SDS011;18201;50.978;7.034;2022-09-27T07:41:59;5.80;;;3.35;;
31596;SDS011;18201;50.978;7.034;2022-09-27T07:43:01;4.45;;;2.25;;
31596;SDS011;18201;50.978;7.034;2022-09-27T07:44:04;5.10;;;2.00;;
31596;SDS011;18201;50.978;7.034;2022-09-27T07:45:05;8.43;;;2.60;;
31596;SDS011;18201;50.978;7.034;2022-09-27T07:46:09;2.42;;;2.22;;
31596;SDS011;18201;50.978;7.034;2022-09-27T07:47:10;4.07;;;2.20;;
31596;SDS011;18201;50.978;7.034;2022-09-27T07:48:13;4.35;;;2.22;;
31596;SDS011;18201;50.978;7.034;2022-09-27T07:49:15;4.07;;;2.53;;
31596;SDS011;18201;50.978;7.034;2022-09-27T07:50:17;7.80;;;2.60;;
31596;SDS011;18201;50.978;7.034;2022-09-27T07:51:19;6.32;;;2.47;;
31596;SDS011;18201;50.978;7.034;2022-09-27T07:52:22;4.30;;;2.70;;
31596;SDS011;18201;50.978;7.034;2022-09-27T07:53:23;8.18;;;2.70;;
31596;SDS011;18201;50.978;7.034;2022-09-27T07:54:25;5.65;;;2.72;;
31596;SDS011;18201;50.978;7.034;2022-09-27T07:55:26;5.90;;;3.55;;
31596;SDS011;18201;50.978;7.034;2022-09-27T07:56:28;7.72;;;2.75;;
31596;SDS011;18201;50.978;7.034;2022-09-27T07:57:29;4.22;;;2.40;;
31596;SDS011;18201;50.978;7.034;2022-09-27T07:58:31;2.80;;;2.42;;
31596;SDS011;18201;50.978;7.034;2022-09-27T07:59:33;5.72;;;3.10;;
31596;SDS011;18201;50.978;7.034;2022-09-27T08:00:34;2.70;;;2.40;;
31596;SDS011;18201;50.978;7.034;2022-09-27T08:01:37;2.92;;;2.45;;
31596;SDS011;18201;50.978;7.034;2022-09-27T08:02:39;6.93;;;2.63;;
31596;SDS011;18201;50.978;7.034;2022-09-27T08:03:40;4.53;;;3.00;;
31596;SDS011;18201;50.978;7.034;2022-09-27T08:04:43;6.15;;;2.65;;
31596;SDS011;18201;50.978;7.034;2022-09-27T08:05:46;11.20;;;4.03;;
31596;SDS011;18201;50.978;7.034;2022-09-27T08:06:50;4.63;;;3.25;;
31596;SDS011;18201;50.978;7.034;2022-09-27T08:07:53;6.65;;;3.10;;
31596;SDS011;18201;50.978;7.034;2022-09-27T08:08:56;5.10;;;2.63;;
31596;SDS011;18201;50.978;7.034;2022-09-27T08:09:57;7.18;;;3.15;;
31596;SDS011;18201;50.978;7.034;2022-09-27T08:10:59;6.10;;;3.20;;
31596;SDS011;18201;50.978;7.034;2022-09-27T08:12:01;4.63;;;2.47;;
31596;SDS011;18201;50.978;7.034;2022-09-27T08:13:03;6.93;;;2.70;;
31596;SDS011;18201;50.978;7.034;2022-09-27T08:14:06;5.40;;;2.58;;
31596;SDS011;18201;50.978;7.034;2022-09-27T08:15:09;7.43;;;2.20;;
31596;SDS011;18201;50.978;7.034;2022-09-27T08:16:10;9.18;;;2.72;;
31596;SDS011;18201;50.978;7.034;2022-09-27T08:17:13;4.05;;;1.90;;
31596;SDS011;18201;50.978;7.034;2022-09-27T08:18:14;4.47;;;2.83;;
31596;SDS011;18201;50.978;7.034;2022-09-27T08:19:16;6.60;;;3.20;;
31596;SDS011;18201;50.978;7.034;2022-09-27T08:20:19;6.57;;;4.20;;
31596;SDS011;18201;50.978;7.034;2022-09-27T08:21:21;8.38;;;4.65;;
31596;SDS011;18201;50.978;7.034;2022-09-27T08:22:24;5.43;;;2.65;;
31596;SDS011;18201;50.978;7.034;2022-09-27T08:23:25;6.95;;;3.83;;
31596;SDS011;18201;50.978;7.034;2022-09-27T08:24:27;6.97;;;2.78;;
31596;SDS011;18201;50.978;7.034;2022-09-27T08:25:28;12.32;;;4.20;;
31596;SDS011;18201;50.978;7.034;2022-09-27T08:26:30;5.78;;;3.55;;
31596;SDS011;18201;50.978;7.034;2022-09-27T08:27:31;6.45;;;2.50;;
31596;SDS011;18201;50.978;7.034;2022-09-27T08:28:33;2.53;;;1.98;;
31596;SDS011;18201;50.978;7.034;2022-09-27T08:29:35;5.80;;;3.33;;
31596;SDS011;18201;50.978;7.034;2022-09-27T08:30:36;6.18;;;3.83;;
31596;SDS011;18201;50.978;7.034;2022-09-27T08:31:38;4.07;;;3.50;;
31596;SDS011;18201;50.978;7.034;2022-09-27T08:32:39;8.40;;;4.18;;
31596;SDS011;18201;50.978;7.034;2022-09-27T08:33:41;4.90;;;3.08;;
31596;SDS011;18201;50.978;7.034;2022-09-27T08:34:42;5.82;;;2.42;;
31596;SDS011;18201;50.978;7.034;2022-09-27T08:35:45;4.43;;;2.80;;
31596;SDS011;18201;50.978;7.034;2022-09-27T08:36:47;5.25;;;2.72;;
31596;SDS011;18201;50.978;7.034;2022-09-27T08:37:53;12.90;;;3.70;;
31596;SDS011;18201;50.978;7.034;2022-09-27T08:38:56;10.90;;;5.45;;
31596;SDS011;18201;50.978;7.034;2022-09-27T08:39:58;2.00;;;1.85;;
31596;SDS011;18201;50.978;7.034;2022-09-27T08:41:01;2.85;;;1.75;;
31596;SDS011;18201;50.978;7.034;2022-09-27T08:42:12;2.47;;;1.80;;
31596;SDS011;18201;50.978;7.034;2022-09-27T08:43:26;3.33;;;1.35;;
31596;SDS011;18201;50.978;7.034;2022-09-27T08:44:38;1.55;;;1.20;;
31596;SDS011;18201;50.978;7.034;2022-09-27T08:45:54;4.38;;;1.80;;
31596;SDS011;18201;50.978;7.034;2022-09-27T08:47:05;6.60;;;1.55;;
31596;SDS011;18201;50.978;7.034;2022-09-27T08:48:13;2.75;;;1.42;;
31596;SDS011;18201;50.978;7.034;2022-09-27T08:49:18;2.35;;;1.35;;
31596;SDS011;18201;50.978;7.034;2022-09-27T08:50:26;5.22;;;1.33;;
31596;SDS011;18201;50.978;7.034;2022-09-27T08:51:29;8.07;;;2.00;;
31596;SDS011;18201;50.978;7.034;2022-09-27T08:52:41;5.65;;;1.73;;
31596;SDS011;18201;50.978;7.034;2022-09-27T08:53:50;2.30;;;1.38;;
31596;SDS011;18201;50.978;7.034;2022-09-27T08:54:55;5.28;;;1.50;;
31596;SDS011;18201;50.978;7.034;2022-09-27T08:56:01;3.33;;;1.13;;
31596;SDS011;18201;50.978;7.034;2022-09-27T08:57:08;5.90;;;1.55;;
31596;SDS011;18201;50.978;7.034;2022-09-27T08:58:12;1.95;;;1.20;;
31596;SDS011;18201;50.978;7.034;2022-09-27T08:59:21;3.60;;;1.50;;
31596;SDS011;18201;50.978;7.034;2022-09-27T09:00:29;5.28;;;1.60;;
31596;SDS011;18201;50.978;7.034;2022-09-27T09:01:31;3.10;;;1.50;;
31596;SDS011;18201;50.978;7.034;2022-09-27T09:02:34;3.30;;;1.55;;
31596;SDS011;18201;50.978;7.034;2022-09-27T09:03:37;4.40;;;1.95;;
31596;SDS011;18201;50.978;7.034;2022-09-27T09:04:40;5.25;;;1.88;;
31596;SDS011;18201;50.978;7.034;2022-09-27T09:05:42;3.88;;;1.45;;
31596;SDS011;18201;50.978;7.034;2022-09-27T09:06:52;5.13;;;2.33;;
31596;SDS011;18201;50.978;7.034;2022-09-27T09:08:15;6.32;;;1.55;;
31596;SDS011;18201;50.978;7.034;2022-09-27T09:09:28;7.43;;;3.22;;
31596;SDS011;18201;50.978;7.034;2022-09-27T09:10:41;5.22;;;1.80;;
31596;SDS011;18201;50.978;7.034;2022-09-27T09:12:15;6.35;;;1.80;;
31596;SDS011;18201;50.978;7.034;2022-09-27T09:13:55;7.10;;;3.00;;
31596;SDS011;18201;50.978;7.034;2022-09-27T09:15:15;3.00;;;1.20;;
31596;SDS011;18201;50.978;7.034;2022-09-27T09:16:23;5.60;;;2.42;;
31596;SDS011;18201;50.978;7.034;2022-09-27T09:17:38;6.38;;;1.80;;
31596;SDS011;18201;50.978;7.034;2022-09-27T09:18:56;4.85;;;1.77;;
31596;SDS011;18201;50.978;7.034;2022-09-27T09:20:22;4.93;;;2.80;;
31596;SDS011;18201;50.978;7.034;2022-09-27T09:21:33;3.95;;;2.50;;
31596;SDS011;18201;50.978;7.034;2022-09-27T09:22:47;4.65;;;2.40;;
31596;SDS011;18201;50.978;7.034;2022-09-27T09:24:04;7.18;;;3.10;;
31596;SDS011;18201;50.978;7.034;2022-09-27T09:25:21;5.75;;;3.15;;
31596;SDS011;18201;50.978;7.034;2022-09-27T09:26:31;4.45;;;2.88;;
31596;SDS011;18201;50.978;7.034;2022-09-27T09:27:35;5.00;;;2.05;;
31596;SDS011;18201;50.978;7.034;2022-09-27T09:28:50;2.42;;;1.83;;
31596;SDS011;18201;50.978;7.034;2022-09-27T09:30:13;5.78;;;2.83;;
31596;SDS011;18201;50.978;7.034;2022-09-27T09:31:22;2.88;;;1.58;;
31596;SDS011;18201;50.978;7.034;2022-09-27T09:32:31;7.82;;;1.77;;
31596;SDS011;18201;50.978;7.034;2022-09-27T09:33:40;1.73;;;1.33;;
31596;SDS011;18201;50.978;7.034;2022-09-27T09:34:46;4.20;;;1.10;;
31596;SDS011;18201;50.978;7.034;2022-09-27T09:35:54;3.13;;;1.60;;
31596;SDS011;18201;50.978;7.034;2022-09-27T09:37:00;4.90;;;1.92;;
31596;SDS011;18201;50.978;7.034;2022-09-27T09:38:08;6.32;;;2.40;;
31596;SDS011;18201;50.978;7.034;2022-09-27T09:39:15;4.22;;;2.10;;
31596;SDS011;18201;50.978;7.034;2022-09-27T09:40:20;4.88;;;2.10;;
31596;SDS011;18201;50.978;7.034;2022-09-27T09:41:27;2.95;;;1.95;;
31596;SDS011;18201;50.978;7.034;2022-09-27T09:42:34;2.63;;;1.50;;
31596;SDS011;18201;50.978;7.034;2022-09-27T09:43:42;2.42;;;1.08;;
31596;SDS011;18201;50.978;7.034;2022-09-27T09:44:48;2.28;;;1.67;;
31596;SDS011;18201;50.978;7.034;2022-09-27T09:45:58;2.67;;;1.40;;
31596;SDS011;18201;50.978;7.034;2022-09-27T09:47:09;1.92;;;1.67;;
31596;SDS011;18201;50.978;7.034;2022-09-27T09:48:16;5.85;;;2.00;;
31596;SDS011;18201;50.978;7.034;2022-09-27T09:49:25;5.32;;;1.75;;
31596;SDS011;18201;50.978;7.034;2022-09-27T09:50:30;3.28;;;1.83;;
31596;SDS011;18201;50.978;7.034;2022-09-27T09:51:37;8.02;;;2.83;;
31596;SDS011;18201;50.978;7.034;2022-09-27T09:52:43;4.25;;;2.28;;
31596;SDS011;18201;50.978;7.034;2022-09-27T09:53:49;4.03;;;1.92;;
31596;SDS011;18201;50.978;7.034;2022-09-27T09:54:54;4.03;;;2.10;;
31596;SDS011;18201;50.978;7.034;2022-09-27T09:56:06;5.53;;;2.45;;
31596;SDS011;18201;50.978;7.034;2022-09-27T09:57:14;4.90;;;2.65;;
31596;SDS011;18201;50.978;7.034;2022-09-27T09:58:19;4.15;;;1.75;;
31596;SDS011;18201;50.978;7.034;2022-09-27T09:59:25;5.50;;;2.03;;
31596;SDS011;18201;50.978;7.034;2022-09-27T10:00:30;4.90;;;1.67;;
31596;SDS011;18201;50.978;7.034;2022-09-27T10:01:32;3.15;;;1.98;;
31596;SDS011;18201;50.978;7.034;2022-09-27T10:02:37;2.40;;;1.90;;
31596;SDS011;18201;50.978;7.034;2022-09-27T10:03:40;4.70;;;2.00;;
31596;SDS011;18201;50.978;7.034;2022-09-27T10:04:41;3.65;;;2.08;;
31596;SDS011;18201;50.978;7.034;2022-09-27T10:05:43;4.15;;;2.00;;
31596;SDS011;18201;50.978;7.034;2022-09-27T10:06:44;3.05;;;2.03;;
31596;SDS011;18201;50.978;7.034;2022-09-27T10:07:47;5.57;;;2.70;;
31596;SDS011;18201;50.978;7.034;2022-09-27T10:08:49;3.88;;;2.17;;
31596;SDS011;18201;50.978;7.034;2022-09-27T10:09:54;5.70;;;2.45;;
31596;SDS011;18201;50.978;7.034;2022-09-27T10:11:00;3.70;;;1.90;;
31596;SDS011;18201;50.978;7.034;2022-09-27T10:12:02;2.92;;;1.92;;
31596;SDS011;18201;50.978;7.034;2022-09-27T10:13:04;3.30;;;2.13;;
31596;SDS011;18201;50.978;7.034;2022-09-27T10:14:15;3.15;;;1.75;;
31596;SDS011;18201;50.978;7.034;2022-09-27T10:15:18;6.18;;;1.83;;
31596;SDS011;18201;50.978;7.034;2022-09-27T10:16:21;6.05;;;2.00;;
31596;SDS011;18201;50.978;7.034;2022-09-27T10:17:24;4.38;;;2.28;;
31596;SDS011;18201;50.978;7.034;2022-09-27T10:24:02;2.10;;;1.85;;
31596;SDS011;18201;50.978;7.034;2022-09-27T10:25:08;4.45;;;2.15;;
31596;SDS011;18201;50.978;7.034;2022-09-27T10:26:10;2.38;;;2.13;;
31596;SDS011;18201;50.978;7.034;2022-09-27T10:44:25;4.05;;;2.42;;
31596;SDS011;18201;50.978;7.034;2022-09-27T10:45:28;4.28;;;2.42;;
31596;SDS011;18201;50.978;7.034;2022-09-27T10:46:32;2.78;;;2.30;;
31596;SDS011;18201;50.978;7.034;2022-09-27T10:47:34;3.17;;;2.22;;
31596;SDS011;18201;50.978;7.034;2022-09-27T10:48:36;3.45;;;2.20;;
31596;SDS011;18201;50.978;7.034;2022-09-27T10:49:41;3.25;;;2.00;;
31596;SDS011;18201;50.978;7.034;2022-09-27T10:50:52;2.28;;;2.08;;
31596;SDS011;18201;50.978;7.034;2022-09-27T10:51:59;3.30;;;2.40;;
31596;SDS011;18201;50.978;7.034;2022-09-27T10:53:04;4.78;;;2.38;;
31596;SDS011;18201;50.978;7.034;2022-09-27T10:54:18;3.95;;;2.20;;
31596;SDS011;18201;50.978;7.034;2022-09-27T10:55:23;5.10;;;2.17;;
31596;SDS011;18201;50.978;7.034;2022-09-27T10:56:27;2.83;;;1.88;;
31596;SDS011;18201;50.978;7.034;2022-09-27T10:57:30;3.85;;;2.50;;
31596;SDS011;18201;50.978;7.034;2022-09-27T10:58:34;5.78;;;2.70;;
31596;SDS011;18201;50.978;7.034;2022-09-27T11:10:36;4.32;;;2.63;;
31596;SDS011;18201;50.978;7.034;2022-09-27T11:11:39;3.30;;;2.30;;
31596;SDS011;18201;50.978;7.034;2022-09-27T11:12:40;7.63;;;5.80;;
31596;SDS011;18201;50.978;7.034;2022-09-27T11:13:55;3.97;;;2.38;;
31596;SDS011;18201;50.978;7.034;2022-09-27T11:14:59;3.95;;;2.30;;
31596;SDS011;18201;50.978;7.034;2022-09-27T11:16:24;3.35;;;2.25;;
31596;SDS011;18201;50.978;7.034;2022-09-27T11:17:43;6.50;;;2.58;;
31596;SDS011;18201;50.978;7.034;2022-09-27T11:18:57;4.13;;;2.65;;
31596;SDS011;18201;50.978;7.034;2022-09-27T11:20:23;8.10;;;2.92;;
31596;SDS011;18201;50.978;7.034;2022-09-27T11:21:33;6.40;;;3.05;;
31596;SDS011;18201;50.978;7.034;2022-09-27T11:24:22;5.30;;;2.90;;
31596;SDS011;18201;50.978;7.034;2022-09-27T11:25:36;3.30;;;2.90;;
31596;SDS011;18201;50.978;7.034;2022-09-27T11:26:48;5.90;;;2.97;;
31596;SDS011;18201;50.978;7.034;2022-09-27T11:29:31;5.43;;;2.80;;
31596;SDS011;18201;50.978;7.034;2022-09-27T11:30:46;3.97;;;2.33;;
31596;SDS011;18201;50.978;7.034;2022-09-27T11:32:03;4.88;;;2.78;;
31596;SDS011;18201;50.978;7.034;2022-09-27T11:33:23;4.43;;;2.50;;
31596;SDS011;18201;50.978;7.034;2022-09-27T11:34:55;7.38;;;2.83;;
31596;SDS011;18201;50.978;7.034;2022-09-27T11:36:07;4.07;;;2.95;;
31596;SDS011;18201;50.978;7.034;2022-09-27T11:37:19;5.80;;;2.70;;
31596;SDS011;18201;50.978;7.034;2022-09-27T11:38:29;9.35;;;2.65;;
31596;SDS011;18201;50.978;7.034;2022-09-27T11:39:34;3.53;;;2.60;;
31596;SDS011;18201;50.978;7.034;2022-09-27T11:40:53;8.00;;;2.45;;
31596;SDS011;18201;50.978;7.034;2022-09-27T11:42:07;3.20;;;2.53;;
31596;SDS011;18201;50.978;7.034;2022-09-27T11:55:07;7.22;;;2.83;;
31596;SDS011;18201;50.978;7.034;2022-09-27T11:56:22;4.28;;;2.75;;
31596;SDS011;18201;50.978;7.034;2022-09-27T11:57:35;4.50;;;2.55;;
31596;SDS011;18201;50.978;7.034;2022-09-27T11:58:53;6.10;;;3.03;;
31596;SDS011;18201;50.978;7.034;2022-09-27T12:00:14;7.00;;;2.78;;
31596;SDS011;18201;50.978;7.034;2022-09-27T12:01:22;3.63;;;2.50;;
31596;SDS011;18201;50.978;7.034;2022-09-27T12:02:37;5.97;;;2.65;;
31596;SDS011;18201;50.978;7.034;2022-09-27T12:04:07;5.97;;;2.80;;
31596;SDS011;18201;50.978;7.034;2022-09-27T12:05:29;4.03;;;3.22;;
31596;SDS011;18201;50.978;7.034;2022-09-27T12:06:36;3.45;;;3.00;;
31596;SDS011;18201;50.978;7.034;2022-09-27T12:07:48;6.63;;;3.60;;
31596;SDS011;18201;50.978;7.034;2022-09-27T12:11:11;4.47;;;3.22;;
31596;SDS011;18201;50.978;7.034;2022-09-27T12:12:19;5.17;;;3.30;;
31596;SDS011;18201;50.978;7.034;2022-09-27T12:17:28;7.82;;;3.42;;
31596;SDS011;18201;50.978;7.034;2022-09-27T12:18:35;8.07;;;2.80;;
31596;SDS011;18201;50.978;7.034;2022-09-27T12:19:39;7.72;;;3.20;;
31596;SDS011;18201;50.978;7.034;2022-09-27T12:20:47;7.80;;;3.83;;
31596;SDS011;18201;50.978;7.034;2022-09-27T13:54:55;6.30;;;5.53;;
31596;SDS011;18201;50.978;7.034;2022-09-27T13:55:57;10.45;;;4.90;;
31596;SDS011;18201;50.978;7.034;2022-09-27T13:57:00;8.48;;;5.63;;
31596;SDS011;18201;50.978;7.034;2022-09-27T13:58:01;6.22;;;5.10;;
31596;SDS011;18201;50.978;7.034;2022-09-27T13:59:12;8.60;;;4.80;;
31596;SDS011;18201;50.978;7.034;2022-09-27T14:00:16;6.30;;;4.30;;
31596;SDS011;18201;50.978;7.034;2022-09-27T14:01:24;6.68;;;4.63;;
31596;SDS011;18201;50.978;7.034;2022-09-27T14:02:30;9.40;;;4.85;;
31596;SDS011;18201;50.978;7.034;2022-09-27T14:03:51;7.90;;;5.40;;
31596;SDS011;18201;50.978;7.034;2022-09-27T14:04:56;10.88;;;6.55;;
31596;SDS011;18201;50.978;7.034;2022-09-27T14:06:02;7.00;;;5.13;;
31596;SDS011;18201;50.978;7.034;2022-09-27T14:07:07;7.43;;;5.15;;
31596;SDS011;18201;50.978;7.034;2022-09-27T14:08:18;5.97;;;4.47;;
31596;SDS011;18201;50.978;7.034;2022-09-27T14:09:31;4.97;;;4.20;;
31596;SDS011;18201;50.978;7.034;2022-09-27T14:10:37;5.90;;;5.28;;
31596;SDS011;18201;50.978;7.034;2022-09-27T14:11:43;5.70;;;4.60;;
31596;SDS011;18201;50.978;7.034;2022-09-27T15:15:04;4.57;;;1.35;;
31596;SDS011;18201;50.978;7.034;2022-09-27T15:16:07;13.25;;;2.30;;
31596;SDS011;18201;50.978;7.034;2022-09-27T15:17:16;3.50;;;1.60;;
31596;SDS011;18201;50.978;7.034;2022-09-27T15:19:55;3.47;;;1.70;;
31596;SDS011;18201;50.978;7.034;2022-09-27T15:20:59;6.38;;;1.95;;
31596;SDS011;18201;50.978;7.034;2022-09-27T15:22:28;6.80;;;1.63;;
31596;SDS011;18201;50.978;7.034;2022-09-27T15:23:38;5.95;;;2.17;;
31596;SDS011;18201;50.978;7.034;2022-09-27T15:24:42;6.13;;;1.60;;
31596;SDS011;18201;50.978;7.034;2022-09-27T15:25:55;4.85;;;1.63;;
31596;SDS011;18201;50.978;7.034;2022-09-27T15:27:01;4.03;;;1.50;;
31596;SDS011;18201;50.978;7.034;2022-09-27T15:28:03;7.15;;;2.10;;
31596;SDS011;18201;50.978;7.034;2022-09-27T15:29:15;3.35;;;1.98;;
31596;SDS011;18201;50.978;7.034;2022-09-27T15:30:20;13.05;;;2.80;;
31596;SDS011;18201;50.978;7.034;2022-09-27T15:31:29;7.68;;;2.15;;
31596;SDS011;18201;50.978;7.034;2022-09-27T15:32:33;7.97;;;2.28;;
31596;SDS011;18201;50.978;7.034;2022-09-27T15:33:34;5.78;;;2.03;;
31596;SDS011;18201;50.978;7.034;2022-09-27T15:34:37;9.23;;;2.97;;
31596;SDS011;18201;50.978;7.034;2022-09-27T15:35:38;6.47;;;2.65;;
31596;SDS011;18201;50.978;7.034;2022-09-27T15:36:50;6.80;;;2.15;;
31596;SDS011;18201;50.978;7.034;2022-09-27T20:16:01;17.70;;;10.60;;
31596;SDS011;18201;50.978;7.034;2022-09-27T20:17:03;16.63;;;9.57;;
